Inyokern, CA

5:36 AM PDT on October 21, 2014 (GMT -0700)
NonFedAWOS INYOKERN CA US SUPERAWOS | Change Station
CLOSE
Current Station
Personal Weather Station
Location: Pearsonville, CA
Elevation: 2455 ft
Nearby Weather Stations

Elev 2455 ft 35.66 °N, 117.83 °W | Updated 41 minutes ago

Clear
Clear
66 °F
Feels Like 66 °F
N
5
Wind Variable Wind from WNW
Gusts 0.0 mph

Today
High -- | Low -- °F
--% Chance of Precip.
Yesterday
High -- | Low -- °F
Precip. -- in
7:03 AM 6:08 PM
Waning Crescent, 6% visible
Pressure 29.82 in
Visibility 10.0 miles
Clouds Clear
Dew Point 34 °F
Humidity 30%
Rainfall -999.00 in
Snow Depth Not available.
UV 0 out of 12
Pollen 4.20 out of 12
Air Quality Not available.
Flu Activity Sporadic
METAR KNID 211156Z AUTO 19005KT 10SM CLR 15/04 A2987 RMK AO2 SLP098 T01500039 10217 20133 58003 $

More Conditions Fewer Conditions

Pressure 29.82 in
Visibility 10.0 miles
Clouds Clear
Dew Point 34 °F
Humidity 30%
Rainfall -999.00 in
Snow Depth Not available.
UV 0 out of 12
Pollen 4.20 out of 12
Air Quality Not available.
Flu Activity Sporadic
METAR KNID 211156Z AUTO 19005KT 10SM CLR 15/04 A2987 RMK AO2 SLP098 T01500039 10217 20133 58003 $

More Conditions Fewer Conditions

10-Day Weather Forecast

Almanac

Astronomy

Oct. 21, 2014 Rise Set
Actual Time 7:03 AM PDT 6:08 PM PDT
Civil Twilight 6:37 AM PDT 6:34 PM PDT
Nautical Twilight 6:07 AM PDT 7:03 PM PDT
Astronomical Twilight 5:37 AM PDT 7:33 PM PDT
Moon 4:56 AM PDT 5:01 PM PDT
Length of Visible Light 11h 56m
Length of Day
11h 04m
Tomorrow will be 2m 7s shorter.
Waning Crescent, 6% of the Moon is Illuminated
Today
Waning Crescent
Oct 23
New
Oct 30
First Quarter
Nov 6
Full
Nov 14
Last Quarter

Today's Extremes

State Highs State Lows

Community

WunderPhotos

Upload Photos

1,763,647 photos uploaded!

Nearby

Snow Depth

Station Depth Elevation
Virginia Lakes Ridge 0 in 9200 ft
Leavitt Lake 1 in 9400 ft
Leavitt Meadows 1 in 7200 ft
Sonora Pass 0 in 8800 ft
Summit Meadow 2 in 9122 ft

Earthquake Activity

City Distance Mag. Time & Date
Mammoth Lakes, California 133 miles 3.0 11:10 PM PDT
2014-10-20
Lone Pine, California 45 miles 2.6 5:26 AM PDT
2014-10-19
Dixon Lane-Meadow Creek, California 133 miles 2.6 5:32 PM PDT
2014-10-18
Minimum magnitude displayed is 2.5.

Coastal Water Temperatures

Place Temperature
No Stations Reporting

Nearby Weather Stations